createdAt,value
2023-03-22T00:01:28.218Z,3.49
2023-03-22T00:03:55.564Z,3.45
2023-03-22T00:06:26.830Z,3.43
2023-03-22T00:08:54.118Z,3.42
2023-03-22T00:11:26.224Z,3.39
2023-03-22T00:13:54.331Z,3.36
2023-03-22T00:16:21.907Z,3.31
2023-03-22T00:18:59.127Z,3.26
2023-03-22T00:21:26.316Z,3.22
2023-03-22T00:23:53.260Z,3.17
2023-03-22T00:26:20.185Z,3.15
2023-03-22T00:28:47.274Z,3.12
2023-03-22T00:31:14.830Z,3.09
2023-03-22T00:33:43.229Z,3.07
2023-03-22T00:36:11.753Z,3.06
2023-03-22T00:38:43.461Z,3.08
2023-03-22T00:41:13.764Z,3.11
2023-03-22T00:43:41.710Z,3.14
2023-03-22T00:46:09.905Z,3.16
2023-03-22T00:48:37.006Z,3.16
2023-03-22T00:51:04.999Z,3.11
2023-03-22T00:53:33.121Z,3.04
2023-03-22T00:56:00.409Z,2.99
2023-03-22T00:58:28.186Z,2.92
2023-03-22T01:00:55.055Z,2.88
2023-03-22T01:03:24.103Z,2.89
2023-03-22T01:05:55.881Z,2.92
2023-03-22T01:08:23.642Z,2.94
2023-03-22T01:10:51.601Z,2.90
2023-03-22T01:13:18.731Z,2.85
2023-03-22T01:15:49.139Z,2.78
2023-03-22T01:18:16.390Z,2.68
2023-03-22T01:20:43.466Z,2.57
2023-03-22T01:23:10.481Z,2.51
2023-03-22T01:25:37.674Z,2.54
2023-03-22T01:28:06.288Z,2.58
2023-03-22T01:30:33.217Z,2.62
2023-03-22T01:33:00.906Z,2.67
2023-03-22T01:35:28.036Z,2.71
2023-03-22T01:37:55.409Z,2.76
2023-03-22T01:40:22.435Z,2.82
2023-03-22T01:42:49.792Z,2.89
2023-03-22T01:45:34.632Z,2.94
2023-03-22T01:48:07.953Z,2.98
2023-03-22T01:50:39.143Z,3.01
2023-03-22T01:53:08.239Z,3.03
2023-03-22T01:55:37.454Z,3.06
2023-03-22T01:58:17.610Z,3.09
2023-03-22T02:00:51.348Z,3.12
2023-03-22T02:04:03.323Z,3.14
2023-03-22T02:06:31.854Z,3.15
2023-03-22T02:09:10.590Z,3.16
2023-03-22T02:11:46.609Z,3.17
2023-03-22T02:14:45.711Z,3.18
2023-03-22T02:17:59.297Z,3.16
2023-03-22T02:20:47.799Z,3.10
2023-03-22T02:23:32.730Z,3.08
2023-03-22T02:26:41.616Z,3.08
2023-03-22T02:29:38.614Z,3.09
2023-03-22T02:32:36.760Z,3.08
2023-03-22T02:35:25.735Z,3.08
2023-03-22T02:38:12.083Z,3.07
2023-03-22T02:40:57.538Z,3.08
2023-03-22T02:43:38.942Z,3.09
2023-03-22T02:46:09.644Z,3.07
2023-03-22T02:49:03.777Z,3.05
2023-03-22T02:51:58.772Z,3.04
2023-03-22T02:54:35.109Z,3.03
2023-03-22T02:57:13.376Z,3.04
2023-03-22T02:59:42.957Z,3.08
2023-03-22T03:02:16.852Z,3.10
2023-03-22T03:04:49.381Z,3.11
2023-03-22T03:07:22.194Z,3.11
2023-03-22T03:09:51.188Z,3.15
2023-03-22T03:12:22.793Z,3.17
2023-03-22T03:14:51.641Z,3.17
2023-03-22T03:17:44.311Z,3.15
2023-03-22T03:20:39.542Z,3.16
2023-03-22T03:23:25.160Z,3.16
2023-03-22T03:26:05.834Z,3.16
2023-03-22T03:28:37.859Z,3.16
2023-03-22T03:31:09.182Z,3.17
2023-03-22T03:33:44.128Z,3.18
2023-03-22T03:36:16.787Z,3.18
2023-03-22T03:38:49.171Z,3.17
2023-03-22T03:41:21.220Z,3.17
2023-03-22T03:43:51.007Z,3.16
2023-03-22T03:46:18.407Z,3.15
2023-03-22T03:48:49.627Z,3.13
2023-03-22T03:51:17.619Z,3.11
2023-03-22T03:53:44.833Z,3.10
2023-03-22T03:56:11.924Z,3.12
2023-03-22T03:58:44.123Z,3.14
2023-03-22T04:01:11.636Z,3.14
2023-03-22T04:04:09.094Z,3.15
2023-03-22T04:06:49.069Z,3.14
2023-03-22T04:09:19.637Z,3.15
2023-03-22T04:11:55.241Z,3.21
2023-03-22T04:14:24.129Z,3.28
2023-03-22T04:16:51.631Z,3.36
2023-03-22T04:19:22.359Z,3.43
2023-03-22T04:21:52.569Z,3.51
2023-03-22T04:24:21.292Z,3.57
2023-03-22T04:26:51.906Z,3.63
2023-03-22T04:29:22.484Z,3.69
2023-03-22T04:31:53.406Z,3.75
2023-03-22T04:34:29.313Z,3.82
2023-03-22T04:37:07.562Z,3.92
2023-03-22T04:39:44.082Z,4.02
2023-03-22T04:42:23.914Z,4.15
2023-03-22T04:44:58.116Z,4.26
2023-03-22T04:47:25.695Z,4.37
2023-03-22T04:49:53.197Z,4.48
2023-03-22T04:52:20.747Z,4.58
2023-03-22T04:54:52.164Z,4.67
2023-03-22T04:57:19.418Z,4.77
2023-03-22T04:59:47.642Z,4.87
2023-03-22T05:02:16.428Z,4.99
2023-03-22T05:04:43.936Z,5.11
2023-03-22T05:07:22.625Z,5.21
2023-03-22T05:09:53.511Z,5.29
2023-03-22T05:12:20.596Z,5.37
2023-03-22T05:15:00.611Z,5.45
2023-03-22T05:17:31.518Z,5.50
2023-03-22T05:20:07.757Z,5.55
2023-03-22T05:22:37.521Z,5.61
2023-03-22T05:25:05.952Z,5.66
2023-03-22T05:27:34.539Z,5.72
2023-03-22T05:30:21.181Z,5.78
2023-03-22T05:33:03.252Z,5.82
2023-03-22T05:35:34.436Z,5.89
2023-03-22T05:38:02.686Z,5.94
2023-03-22T05:40:32.768Z,5.98
2023-03-22T05:43:00.606Z,6.01
2023-03-22T05:45:36.496Z,6.03
2023-03-22T05:48:20.423Z,6.06
2023-03-22T05:50:47.572Z,6.08
2023-03-22T05:53:16.551Z,6.11
2023-03-22T05:56:01.796Z,6.15
2023-03-22T05:58:31.979Z,6.22
2023-03-22T06:01:11.665Z,6.31
2023-03-22T06:03:48.075Z,6.43
2023-03-22T06:06:24.314Z,6.52
2023-03-22T06:09:15.954Z,6.61
2023-03-22T06:11:50.913Z,6.73
2023-03-22T06:14:18.339Z,6.84
2023-03-22T06:17:08.231Z,6.97
2023-03-22T06:19:40.333Z,7.10
2023-03-22T06:22:08.354Z,7.24
2023-03-22T06:24:36.282Z,7.37
2023-03-22T06:27:06.811Z,7.49
2023-03-22T06:29:35.501Z,7.60
2023-03-22T06:32:03.703Z,7.73
2023-03-22T06:34:32.484Z,7.85
2023-03-22T06:37:00.382Z,7.96
2023-03-22T06:39:33.418Z,8.06
2023-03-22T06:42:00.639Z,8.14
2023-03-22T06:44:28.005Z,8.23
2023-03-22T06:47:15.669Z,8.32
2023-03-22T06:50:12.322Z,8.43
2023-03-22T06:53:01.376Z,8.54
2023-03-22T06:55:32.703Z,8.63
2023-03-22T06:58:01.873Z,8.75
2023-03-22T07:00:30.417Z,8.89
2023-03-22T07:02:58.776Z,9.09
2023-03-22T07:05:35.296Z,9.34
2023-03-22T07:08:02.466Z,9.61
2023-03-22T07:10:37.617Z,9.93
2023-03-22T07:13:06.023Z,10.23
2023-03-22T07:15:34.562Z,10.53
2023-03-22T07:18:15.167Z,10.81
2023-03-22T07:20:42.232Z,11.07
2023-03-22T07:23:10.370Z,11.32
2023-03-22T07:25:43.805Z,11.57
2023-03-22T07:28:23.824Z,11.80
2023-03-22T07:31:03.484Z,11.94
2023-03-22T07:33:34.944Z,12.03
2023-03-22T07:36:02.924Z,12.08
2023-03-22T07:38:30.429Z,12.15
2023-03-22T07:40:58.301Z,12.23
2023-03-22T07:43:30.033Z,12.28
2023-03-22T07:46:09.017Z,12.32
2023-03-22T07:48:58.002Z,12.32
2023-03-22T07:51:48.801Z,12.31
2023-03-22T07:54:32.210Z,12.36
2023-03-22T07:57:01.777Z,12.45
2023-03-22T07:59:30.786Z,12.58
2023-03-22T08:01:59.351Z,12.75
2023-03-22T08:04:31.521Z,12.89
2023-03-22T08:07:09.485Z,13.02
2023-03-22T08:09:38.826Z,13.07
2023-03-22T08:12:06.717Z,13.08
2023-03-22T08:14:36.822Z,13.09
2023-03-22T08:17:07.477Z,13.07
2023-03-22T11:34:46.727Z,14.94
2023-03-22T11:37:18.501Z,15.09
2023-03-22T11:40:00.274Z,15.09
2023-03-22T11:42:29.058Z,15.08
2023-03-22T11:44:57.447Z,15.10
2023-03-22T11:47:32.986Z,15.12
2023-03-22T11:50:05.181Z,15.13
2023-03-22T11:52:33.876Z,15.14
2023-03-22T11:55:03.122Z,15.16
2023-03-22T11:57:34.900Z,15.17
2023-03-22T12:00:27.259Z,15.18
2023-03-22T12:03:04.886Z,15.17
2023-03-22T12:05:43.068Z,15.19
2023-03-22T12:08:27.351Z,15.20
2023-03-22T12:11:06.395Z,15.23
2023-03-22T12:13:50.223Z,15.28
2023-03-22T12:16:25.276Z,15.35
2023-03-22T12:19:26.152Z,15.39
2023-03-22T12:21:55.552Z,15.43
2023-03-22T12:24:33.314Z,15.48
2023-03-22T12:27:21.791Z,15.55
2023-03-22T12:30:18.358Z,15.61
2023-03-22T12:33:06.861Z,15.65
2023-03-22T12:35:42.573Z,15.71
2023-03-22T12:38:24.450Z,15.76
2023-03-22T12:40:56.187Z,15.83
2023-03-22T12:43:56.451Z,15.88
2023-03-22T12:46:32.396Z,15.94
2023-03-22T12:49:46.013Z,15.97
2023-03-22T12:52:21.355Z,15.97
2023-03-22T12:54:52.975Z,15.93
2023-03-22T12:57:21.404Z,15.90
2023-03-22T12:59:52.468Z,15.87
2023-03-22T13:02:30.501Z,15.82
2023-03-22T13:05:05.317Z,15.77
2023-03-22T13:07:49.692Z,15.71
2023-03-22T13:10:34.494Z,15.65
2023-03-22T13:13:23.652Z,15.58
2023-03-22T13:16:13.760Z,15.49
2023-03-22T13:18:45.442Z,15.40
2023-03-22T13:21:21.378Z,15.33
2023-03-22T13:24:06.182Z,15.27
2023-03-22T13:26:55.169Z,15.20
2023-03-22T13:29:42.133Z,15.14
2023-03-22T13:32:38.024Z,15.09
2023-03-22T13:35:22.096Z,15.06
2023-03-22T13:37:52.001Z,15.06
2023-03-22T13:40:35.184Z,15.08
2023-03-22T13:43:24.505Z,15.09
2023-03-22T13:46:06.458Z,15.10
2023-03-22T13:48:52.610Z,15.10
2023-03-22T13:51:27.992Z,15.10
2023-03-22T13:54:08.534Z,15.11
2023-03-22T13:56:56.561Z,15.11
2023-03-22T13:59:28.050Z,15.13
2023-03-22T14:01:59.742Z,15.15
2023-03-22T14:04:31.576Z,15.18
2023-03-22T14:07:07.282Z,15.19
2023-03-22T14:09:51.463Z,15.23
2023-03-22T14:12:31.209Z,15.27
2023-03-22T14:15:04.852Z,15.31
2023-03-22T14:17:58.376Z,15.34
2023-03-22T14:20:34.705Z,15.34
